createdAt,value
2019-01-20T00:01:22.923Z,9.80
2019-01-20T00:03:50.319Z,10.40
2019-01-20T00:06:19.023Z,10.90
2019-01-20T00:08:46.435Z,9.63
2019-01-20T00:11:16.687Z,9.87
2019-01-20T00:13:43.024Z,9.87
2019-01-20T00:16:10.750Z,10.07
2019-01-20T00:18:38.258Z,9.67
2019-01-20T00:21:05.557Z,10.90
2019-01-20T00:23:32.936Z,9.20
2019-01-20T00:26:00.284Z,9.90
2019-01-20T00:28:27.724Z,11.60
2019-01-20T00:30:55.719Z,10.13
2019-01-20T00:33:23.221Z,10.37
2019-01-20T00:35:50.744Z,11.17
2019-01-20T00:38:18.195Z,10.17
2019-01-20T00:40:45.552Z,11.37
2019-01-20T00:43:13.064Z,10.63
2019-01-20T00:45:40.480Z,10.50
2019-01-20T00:48:08.100Z,11.53
2019-01-20T00:50:35.527Z,10.70
2019-01-20T00:53:03.372Z,11.43
2019-01-20T00:55:30.834Z,12.17
2019-01-20T00:57:58.141Z,11.63
2019-01-20T01:00:26.858Z,10.30
2019-01-20T01:02:54.257Z,12.00
2019-01-20T01:05:22.017Z,12.40
2019-01-20T01:07:50.327Z,11.63
2019-01-20T01:10:18.007Z,10.90
2019-01-20T01:12:47.646Z,11.53
2019-01-20T01:15:15.140Z,10.90
2019-01-20T01:17:42.617Z,11.23
2019-01-20T01:20:11.723Z,11.43
2019-01-20T01:22:39.085Z,11.10
2019-01-20T01:25:08.590Z,10.23
2019-01-20T01:27:35.978Z,10.93
2019-01-20T01:30:05.951Z,10.80
2019-01-20T01:32:41.278Z,10.40
2019-01-20T01:35:08.979Z,10.90
2019-01-20T01:37:36.412Z,12.17
2019-01-20T01:40:04.403Z,10.57
2019-01-20T01:42:31.899Z,11.53
2019-01-20T01:44:59.351Z,11.03
2019-01-20T01:47:26.833Z,10.47
2019-01-20T01:49:54.201Z,9.80
2019-01-20T01:52:21.736Z,9.97
2019-01-20T01:54:49.111Z,11.13
2019-01-20T01:57:16.444Z,9.63
2019-01-20T01:59:43.929Z,10.27
2019-01-20T02:02:11.413Z,10.90
2019-01-20T02:04:38.886Z,12.33
2019-01-20T02:07:06.289Z,10.10
2019-01-20T02:09:33.743Z,10.43
2019-01-20T02:12:01.358Z,11.03
2019-01-20T02:14:28.787Z,10.37
2019-01-20T02:16:56.123Z,9.90
2019-01-20T02:19:23.499Z,11.17
2019-01-20T02:21:50.931Z,9.97
2019-01-20T02:24:18.408Z,9.87
2019-01-20T02:26:45.744Z,10.70
2019-01-20T02:29:13.201Z,9.47
2019-01-20T02:31:40.656Z,10.07
2019-01-20T02:34:08.091Z,10.33
2019-01-20T02:36:35.599Z,9.80
2019-01-20T02:39:04.673Z,10.27
2019-01-20T02:41:32.092Z,9.60
2019-01-20T02:43:59.481Z,9.33
2019-01-20T02:46:27.039Z,10.30
2019-01-20T02:48:54.416Z,11.13
2019-01-20T02:51:21.857Z,9.53
2019-01-20T02:53:49.226Z,10.43
2019-01-20T02:56:16.584Z,10.07
2019-01-20T02:58:43.921Z,10.23
2019-01-20T03:01:11.332Z,10.63
2019-01-20T03:03:38.751Z,9.47
2019-01-20T03:06:06.170Z,9.97
2019-01-20T03:08:33.682Z,9.90
2019-01-20T03:11:01.112Z,10.17
2019-01-20T03:13:28.547Z,9.80
2019-01-20T03:15:55.954Z,10.47
2019-01-20T03:18:23.504Z,9.83
2019-01-20T03:20:50.971Z,12.23
2019-01-20T03:23:18.408Z,9.63
2019-01-20T03:25:46.118Z,11.23
2019-01-20T03:28:13.549Z,9.73
2019-01-20T03:30:41.089Z,9.97
2019-01-20T03:33:08.471Z,10.27
2019-01-20T03:35:35.987Z,10.17
2019-01-20T03:38:03.339Z,10.40
2019-01-20T03:40:30.770Z,10.47
2019-01-20T03:42:58.125Z,10.63
2019-01-20T03:45:40.587Z,10.77
2019-01-20T03:48:08.068Z,9.80
2019-01-20T03:50:35.581Z,9.40
2019-01-20T03:53:03.083Z,9.43
2019-01-20T03:55:30.404Z,9.27
2019-01-20T03:57:57.816Z,10.20
2019-01-20T04:00:25.434Z,10.03
2019-01-20T04:02:55.413Z,10.37
2019-01-20T04:05:22.828Z,9.27
2019-01-20T04:07:50.129Z,9.20
2019-01-20T04:10:17.635Z,9.97
2019-01-20T04:12:45.053Z,10.87
2019-01-20T04:15:13.064Z,10.30
2019-01-20T04:17:40.371Z,9.23
2019-01-20T04:20:07.964Z,9.43
2019-01-20T04:22:35.482Z,9.13
2019-01-20T04:25:03.932Z,8.93
2019-01-20T04:27:31.334Z,9.87
2019-01-20T04:29:58.725Z,9.83
2019-01-20T04:32:28.119Z,9.40
2019-01-20T04:34:55.500Z,8.30
2019-01-20T04:37:22.833Z,9.13
2019-01-20T04:39:50.118Z,9.50
2019-01-20T04:42:17.580Z,8.40
2019-01-20T04:44:45.057Z,8.63
2019-01-20T04:47:12.470Z,8.77
2019-01-20T04:49:39.994Z,10.07
2019-01-20T04:52:07.385Z,8.47
2019-01-20T04:54:34.783Z,8.70
2019-01-20T04:57:02.219Z,8.97
2019-01-20T04:59:29.693Z,8.30
2019-01-20T05:01:57.168Z,9.10
2019-01-20T05:04:24.610Z,10.97
2019-01-20T05:06:52.059Z,9.70
2019-01-20T05:09:19.597Z,9.33
2019-01-20T05:11:47.089Z,8.77
2019-01-20T05:14:14.422Z,9.20
2019-01-20T05:16:41.763Z,8.43
2019-01-20T05:19:09.159Z,9.73
2019-01-20T05:21:36.487Z,8.00
2019-01-20T05:24:03.683Z,8.70
2019-01-20T05:26:31.014Z,8.50
2019-01-20T05:28:58.427Z,9.00
2019-01-20T05:31:25.747Z,9.07
2019-01-20T05:33:53.079Z,9.67
2019-01-20T05:36:20.346Z,8.70
2019-01-20T05:38:47.662Z,9.33
2019-01-20T05:41:14.929Z,10.27
2019-01-20T05:43:42.278Z,8.73
2019-01-20T05:46:09.626Z,8.00
2019-01-20T05:48:36.949Z,8.23
2019-01-20T05:51:04.288Z,8.10
2019-01-20T05:53:31.575Z,8.60
2019-01-20T05:55:58.851Z,8.83
2019-01-20T05:58:26.222Z,8.57
2019-01-20T06:00:53.633Z,8.80
2019-01-20T06:03:20.910Z,8.57
2019-01-20T06:05:48.452Z,9.07
2019-01-20T06:08:15.853Z,8.70
2019-01-20T06:10:43.140Z,8.83
2019-01-20T06:13:10.429Z,8.97
2019-01-20T06:15:37.736Z,8.50
2019-01-20T06:18:05.419Z,9.57
2019-01-20T06:20:32.887Z,8.27
2019-01-20T06:23:00.186Z,9.13
2019-01-20T06:25:27.473Z,9.43
2019-01-20T06:27:54.736Z,8.97
2019-01-20T06:30:27.538Z,9.30
2019-01-20T06:32:54.950Z,8.17
2019-01-20T06:35:22.282Z,8.03
2019-01-20T06:37:49.622Z,9.57
2019-01-20T06:40:17.048Z,8.30
2019-01-20T06:42:44.378Z,8.50
2019-01-20T06:45:11.829Z,10.20
2019-01-20T06:47:39.284Z,7.87
2019-01-20T06:50:08.894Z,8.97
2019-01-20T06:52:36.380Z,8.40
2019-01-20T06:55:03.981Z,8.67
2019-01-20T06:57:31.480Z,7.90
2019-01-20T06:59:58.940Z,7.63
2019-01-20T07:02:26.420Z,9.53
2019-01-20T07:04:53.837Z,9.27
2019-01-20T07:07:21.215Z,9.60
2019-01-20T07:09:48.774Z,8.73
2019-01-20T07:12:16.241Z,9.23
2019-01-20T07:14:43.652Z,7.97
2019-01-20T07:17:11.164Z,7.47
2019-01-20T07:19:38.483Z,7.23
2019-01-20T07:22:05.890Z,7.43
2019-01-20T07:24:33.399Z,8.20
2019-01-20T07:27:00.786Z,7.63
2019-01-20T07:29:28.133Z,9.67
2019-01-20T07:31:55.758Z,9.90
2019-01-20T07:34:23.133Z,9.40
2019-01-20T07:36:57.133Z,11.33
2019-01-20T07:39:24.523Z,9.57
2019-01-20T07:41:52.123Z,9.67
2019-01-20T07:44:54.826Z,9.17
2019-01-20T07:47:25.722Z,7.93
2019-01-20T07:49:53.144Z,8.47
2019-01-20T07:52:20.899Z,7.57
2019-01-20T07:54:48.669Z,8.20
2019-01-20T07:57:15.939Z,7.70
2019-01-20T07:59:43.459Z,8.37
2019-01-20T08:02:10.859Z,9.10
2019-01-20T08:04:38.341Z,7.77
2019-01-20T08:07:05.972Z,7.03
2019-01-20T08:09:33.470Z,8.03
2019-01-20T08:12:01.240Z,7.70
2019-01-20T08:14:28.874Z,6.50
2019-01-20T08:16:56.325Z,7.30
2019-01-20T08:19:23.891Z,7.30
2019-01-20T08:21:51.331Z,7.77
2019-01-20T08:24:18.887Z,6.80
2019-01-20T08:26:48.019Z,7.70
2019-01-20T08:29:15.725Z,7.97
2019-01-20T08:31:43.248Z,7.17
2019-01-20T08:34:11.780Z,7.00
2019-01-20T08:36:39.458Z,6.23
2019-01-20T08:39:07.446Z,6.17
2019-01-20T08:41:34.967Z,8.23
2019-01-20T08:44:05.559Z,6.70
2019-01-20T08:46:58.141Z,6.77
2019-01-20T08:49:25.612Z,7.47
2019-01-20T08:51:53.187Z,6.67
2019-01-20T08:54:21.872Z,6.77
2019-01-20T08:56:51.432Z,8.10
2019-01-20T08:59:19.355Z,5.37
2019-01-20T09:01:46.814Z,6.10
2019-01-20T09:04:14.263Z,6.93
2019-01-20T09:06:44.128Z,5.40
2019-01-20T09:09:11.838Z,6.93
2019-01-20T09:11:39.145Z,7.07
2019-01-20T09:14:07.862Z,6.60
2019-01-20T09:16:35.540Z,5.97
2019-01-20T09:19:03.046Z,6.13
2019-01-20T09:21:30.560Z,6.40
2019-01-20T09:24:00.048Z,6.17
2019-01-20T09:26:27.452Z,7.17
2019-01-20T09:28:55.144Z,7.40
2019-01-20T09:31:22.924Z,6.10
2019-01-20T09:33:50.878Z,6.60
2019-01-20T09:36:19.118Z,7.60
2019-01-20T09:38:47.293Z,7.57
2019-01-20T09:41:15.064Z,7.07
2019-01-20T09:43:47.085Z,5.97
2019-01-20T09:46:12.678Z,6.10
2019-01-20T09:48:45.655Z,6.67
2019-01-20T09:51:13.310Z,6.23
2019-01-20T09:53:40.855Z,6.10
2019-01-20T09:56:08.814Z,5.80
2019-01-20T09:58:36.582Z,5.43
2019-01-20T10:01:04.318Z,6.73
2019-01-20T10:03:32.134Z,6.00
2019-01-20T10:05:59.716Z,6.43
2019-01-20T10:08:27.331Z,5.80
2019-01-20T10:10:54.655Z,6.00
2019-01-20T10:13:22.152Z,7.97
2019-01-20T10:15:52.448Z,5.57
2019-01-20T10:18:20.234Z,6.40
2019-01-20T10:20:47.713Z,7.20
2019-01-20T10:23:15.207Z,8.23
2019-01-20T10:25:42.871Z,5.77
2019-01-20T10:28:13.139Z,7.00
2019-01-20T10:30:40.752Z,6.10
2019-01-20T10:33:11.268Z,6.60
2019-01-20T10:36:04.925Z,6.33
2019-01-20T10:38:37.382Z,6.60
2019-01-20T10:41:06.041Z,6.17
2019-01-20T10:43:36.676Z,7.40
2019-01-20T10:46:04.128Z,6.20
2019-01-20T10:48:33.733Z,6.63
2019-01-20T10:51:03.871Z,6.70
2019-01-20T10:53:31.877Z,7.83
2019-01-20T10:55:59.768Z,8.77
2019-01-20T10:58:27.193Z,6.87
2019-01-20T11:00:54.534Z,6.80
2019-01-20T11:03:22.133Z,7.20
2019-01-20T11:05:49.598Z,6.83
2019-01-20T11:08:17.150Z,8.17
2019-01-20T11:10:44.531Z,8.13
2019-01-20T11:13:11.978Z,7.93
2019-01-20T11:15:39.426Z,8.27
2019-01-20T11:18:06.872Z,7.97
2019-01-20T11:20:34.518Z,8.10
2019-01-20T11:23:02.032Z,7.33
2019-01-20T11:25:32.538Z,8.53
2019-01-20T11:28:00.321Z,8.17
2019-01-20T11:30:28.017Z,7.63
2019-01-20T11:32:55.558Z,10.53
2019-01-20T11:35:23.104Z,8.47
2019-01-20T11:37:50.804Z,8.83
2019-01-20T11:40:18.110Z,8.53
2019-01-20T11:42:45.472Z,8.40
2019-01-20T11:45:15.009Z,11.07
2019-01-20T11:47:42.822Z,9.93
2019-01-20T11:50:10.765Z,11.07
2019-01-20T11:52:38.162Z,11.13
2019-01-20T11:55:06.717Z,11.33
2019-01-20T11:57:33.988Z,11.33
2019-01-20T12:00:01.802Z,12.17
2019-01-20T12:02:29.206Z,12.10
2019-01-20T12:05:01.039Z,13.00
2019-01-20T12:07:28.419Z,12.73
2019-01-20T12:09:55.853Z,12.50
2019-01-20T12:12:23.769Z,13.30
2019-01-20T12:14:51.681Z,12.63
2019-01-20T12:17:19.183Z,12.67
2019-01-20T12:19:46.663Z,12.77
2019-01-20T12:22:14.297Z,13.37
2019-01-20T12:24:41.852Z,13.37
2019-01-20T12:27:09.300Z,13.80
2019-01-20T12:29:37.745Z,14.20
2019-01-20T12:32:05.300Z,12.83
2019-01-20T12:34:32.835Z,13.47
2019-01-20T12:37:00.507Z,13.73
2019-01-20T12:39:28.437Z,13.60
2019-01-20T12:41:58.542Z,13.90
2019-01-20T12:44:31.416Z,13.57
2019-01-20T12:46:57.493Z,13.50
2019-01-20T12:49:26.241Z,12.70
2019-01-20T12:51:53.735Z,12.47
2019-01-20T12:54:21.378Z,13.33
2019-01-20T12:56:49.315Z,13.37
2019-01-20T12:59:19.994Z,14.67
2019-01-20T13:01:47.532Z,15.40
2019-01-20T13:04:14.951Z,13.90
2019-01-20T13:06:42.670Z,16.27
2019-01-20T13:09:10.104Z,13.57
2019-01-20T13:11:38.068Z,13.87
2019-01-20T13:14:05.553Z,14.33
2019-01-20T13:16:33.050Z,14.93
2019-01-20T13:19:00.641Z,13.27
2019-01-20T13:21:28.232Z,13.93
2019-01-20T13:24:47.136Z,13.83
2019-01-20T13:27:15.876Z,13.13
2019-01-20T13:29:43.643Z,14.17
2019-01-20T13:32:11.204Z,13.60
2019-01-20T13:34:39.165Z,13.83
2019-01-20T13:37:07.366Z,13.40
2019-01-20T13:39:34.900Z,13.67
2019-01-20T13:42:02.449Z,13.33
2019-01-20T13:44:29.936Z,13.53
2019-01-20T13:47:00.457Z,14.10
2019-01-20T13:52:34.603Z,12.93
2019-01-20T13:55:02.629Z,14.80
2019-01-20T13:57:30.247Z,13.30
2019-01-20T13:59:59.808Z,13.47
2019-01-20T14:02:54.572Z,13.80
2019-01-20T14:05:22.294Z,13.97
2019-01-20T14:07:50.060Z,15.27
2019-01-20T14:10:18.608Z,14.17
2019-01-20T14:12:46.284Z,12.63
2019-01-20T14:15:14.571Z,12.47
2019-01-20T14:17:42.725Z,11.77
2019-01-20T14:20:18.041Z,11.97
2019-01-20T14:22:45.776Z,11.80
2019-01-20T14:25:15.257Z,10.77
2019-01-20T14:27:43.042Z,11.10
2019-01-20T14:30:16.851Z,11.27
2019-01-20T14:32:44.371Z,11.53
2019-01-20T14:35:12.057Z,11.37
2019-01-20T14:37:39.637Z,10.67
2019-01-20T14:40:21.315Z,10.40
2019-01-20T14:43:00.914Z,10.87
2019-01-20T14:49:59.492Z,10.33
2019-01-20T14:52:30.255Z,12.07
2019-01-20T14:54:57.848Z,11.50
2019-01-20T14:57:25.266Z,11.03
2019-01-20T14:59:52.956Z,12.50
2019-01-20T15:02:20.492Z,10.73
2019-01-20T15:04:48.051Z,10.47
2019-01-20T15:07:15.613Z,11.17
2019-01-20T15:09:43.357Z,10.90
2019-01-20T15:12:10.778Z,11.13
2019-01-20T15:14:38.365Z,11.47
2019-01-20T15:17:05.943Z,10.90
2019-01-20T15:19:33.452Z,10.60
2019-01-20T15:22:01.538Z,11.33
2019-01-20T15:24:40.752Z,10.43
2019-01-20T15:27:12.536Z,11.27
2019-01-20T15:29:40.335Z,10.37
2019-01-20T15:32:07.771Z,11.13
2019-01-20T15:34:35.398Z,13.60
2019-01-20T15:37:03.011Z,12.67
2019-01-20T15:39:30.766Z,10.80
2019-01-20T15:41:58.395Z,11.63
2019-01-20T15:46:31.134Z,11.00
2019-01-20T15:48:58.905Z,11.23
2019-01-20T15:51:26.287Z,11.10
2019-01-20T15:53:56.977Z,11.70
2019-01-20T15:56:26.534Z,11.40
2019-01-20T15:58:54.220Z,11.37
2019-01-20T16:01:22.144Z,10.93
2019-01-20T16:03:50.638Z,11.40
2019-01-20T16:06:18.535Z,11.33
2019-01-20T16:08:46.654Z,11.10
2019-01-20T16:11:15.713Z,11.00
2019-01-20T16:13:43.351Z,11.30
2019-01-20T16:19:00.525Z,10.60
2019-01-20T16:21:31.863Z,10.90
2019-01-20T16:23:59.390Z,10.87
2019-01-20T16:26:27.584Z,11.33
2019-01-20T16:28:56.381Z,12.20
2019-01-20T16:31:24.485Z,11.27
2019-01-20T16:33:52.498Z,12.37
2019-01-20T16:36:20.094Z,12.10
2019-01-20T16:39:12.963Z,12.30
2019-01-20T16:41:40.809Z,12.40
2019-01-20T16:44:08.208Z,11.50
2019-01-20T16:46:36.118Z,11.87
2019-01-20T16:51:44.861Z,11.70
2019-01-20T16:55:01.370Z,12.47
2019-01-20T17:00:18.313Z,13.53
2019-01-20T17:02:48.053Z,12.57
2019-01-20T17:05:15.944Z,12.73
2019-01-20T17:07:46.141Z,13.63
2019-01-20T17:10:19.403Z,13.23
2019-01-20T17:12:47.174Z,12.57
2019-01-20T17:15:24.225Z,13.00
2019-01-20T17:17:51.964Z,12.93
2019-01-20T17:20:19.485Z,13.17
2019-01-20T17:22:48.720Z,13.07
2019-01-20T17:25:16.807Z,14.23
2019-01-20T17:27:44.379Z,12.17
2019-01-20T17:30:16.221Z,13.30
2019-01-20T17:32:45.201Z,13.93
2019-01-20T17:35:14.131Z,14.03
2019-01-20T17:38:01.130Z,13.87
2019-01-20T17:40:28.641Z,15.00
2019-01-20T17:42:56.195Z,14.03
2019-01-20T17:45:33.071Z,13.60
2019-01-20T17:48:00.555Z,13.43
2019-01-20T17:50:35.053Z,14.20
2019-01-20T17:53:03.246Z,13.03
2019-01-20T17:55:36.279Z,13.50
2019-01-20T17:58:04.237Z,14.10
2019-01-20T18:00:41.246Z,14.37
2019-01-20T18:03:08.984Z,14.23
2019-01-20T18:05:39.450Z,14.77
2019-01-20T18:08:07.660Z,14.47
2019-01-20T18:10:35.147Z,14.53
2019-01-20T18:13:04.014Z,15.40
2019-01-20T18:15:31.571Z,16.00
2019-01-20T18:17:59.171Z,15.40
2019-01-20T18:20:52.355Z,15.53
2019-01-20T18:23:20.011Z,15.00
2019-01-20T18:25:47.418Z,14.80
2019-01-20T18:28:14.949Z,16.17
2019-01-20T18:30:42.769Z,16.17
2019-01-20T18:33:10.487Z,17.27
2019-01-20T18:35:38.071Z,17.10
2019-01-20T18:38:05.466Z,16.50
2019-01-20T18:40:33.216Z,16.83
2019-01-20T18:43:00.611Z,17.87
2019-01-20T18:45:28.995Z,16.53
2019-01-20T18:47:56.548Z,18.33
2019-01-20T18:50:26.277Z,17.23
2019-01-20T18:52:53.914Z,17.97
2019-01-20T18:55:21.609Z,18.80
2019-01-20T18:57:49.046Z,19.93
2019-01-20T19:00:19.390Z,18.93
2019-01-20T19:02:47.106Z,18.20
2019-01-20T19:05:15.169Z,17.93
2019-01-20T19:07:42.925Z,18.43
2019-01-20T19:10:10.803Z,18.67
2019-01-20T19:12:38.835Z,20.37
2019-01-20T19:15:07.775Z,20.13
2019-01-20T19:17:35.262Z,18.97
2019-01-20T19:20:03.871Z,21.60
2019-01-20T19:22:31.335Z,18.67
2019-01-20T19:24:58.796Z,18.07
2019-01-20T19:27:26.220Z,19.60
2019-01-20T19:29:53.886Z,19.37
2019-01-20T19:32:21.478Z,20.00
2019-01-20T19:34:48.827Z,19.87
2019-01-20T19:37:16.331Z,19.97
2019-01-20T19:39:50.349Z,20.37
2019-01-20T19:42:13.746Z,19.67
2019-01-20T19:44:41.846Z,19.80
2019-01-20T19:47:09.219Z,21.37
2019-01-20T19:49:38.980Z,20.53
2019-01-20T19:52:06.517Z,20.20
2019-01-20T19:54:34.013Z,19.53
2019-01-20T19:57:01.434Z,19.57
2019-01-20T19:59:29.004Z,19.77
2019-01-20T20:02:05.768Z,19.60
2019-01-20T20:04:33.217Z,19.80
2019-01-20T20:07:00.743Z,19.10
2019-01-20T20:09:45.203Z,19.50
2019-01-20T20:12:12.743Z,20.93
2019-01-20T20:14:41.040Z,19.20
2019-01-20T20:19:41.781Z,20.27
2019-01-20T20:22:12.955Z,20.07
2019-01-20T20:24:40.603Z,19.90
2019-01-20T20:27:08.750Z,20.10
2019-01-20T20:29:36.197Z,20.23
2019-01-20T20:32:03.958Z,20.37
2019-01-20T20:34:31.544Z,20.93
2019-01-20T20:37:00.413Z,20.53
2019-01-20T20:39:28.346Z,21.97
2019-01-20T20:41:56.008Z,20.67
2019-01-20T20:44:23.728Z,20.13
2019-01-20T20:46:51.575Z,20.73
2019-01-20T20:49:19.339Z,22.23
2019-01-20T20:51:46.877Z,22.83
2019-01-20T20:54:14.734Z,20.43
2019-01-20T20:56:42.365Z,20.13
2019-01-20T20:59:10.395Z,21.43
2019-01-20T21:01:37.993Z,20.47
2019-01-20T21:04:06.955Z,22.50
2019-01-20T21:06:34.819Z,22.27
2019-01-20T21:09:06.194Z,21.33
2019-01-20T21:11:36.183Z,21.50
2019-01-20T21:14:04.056Z,20.77
2019-01-20T21:16:37.719Z,20.63
2019-01-20T21:19:01.040Z,21.80
2019-01-20T21:21:28.579Z,20.13
2019-01-20T21:23:57.209Z,21.63
2019-01-20T21:26:24.960Z,21.13
2019-01-20T21:28:52.557Z,21.53
2019-01-20T21:31:20.879Z,20.77
2019-01-20T21:33:49.909Z,21.57
2019-01-20T21:36:21.095Z,21.20
2019-01-20T21:38:49.749Z,21.53
2019-01-20T21:41:17.722Z,20.27
2019-01-20T21:43:46.116Z,20.67
2019-01-20T21:46:13.748Z,20.83
2019-01-20T21:48:42.310Z,20.83
2019-01-20T21:54:03.474Z,19.60
2019-01-20T21:56:31.126Z,20.43
2019-01-20T21:58:58.672Z,19.83
2019-01-20T22:01:26.233Z,19.90
2019-01-20T22:03:54.192Z,20.43
2019-01-20T22:06:21.894Z,21.13
2019-01-20T22:08:49.427Z,21.10
2019-01-20T22:11:16.946Z,22.03
2019-01-20T22:13:45.062Z,21.27
2019-01-20T22:16:13.986Z,21.17
2019-01-20T22:18:42.627Z,23.87
2019-01-20T22:21:10.218Z,21.33
2019-01-20T22:23:37.916Z,21.00
2019-01-20T22:26:05.480Z,22.90
2019-01-20T22:28:32.964Z,22.33
2019-01-20T22:31:00.643Z,20.70
2019-01-20T22:33:28.145Z,21.10
2019-01-20T22:35:55.626Z,22.17
2019-01-20T22:38:23.389Z,21.33
2019-01-20T22:40:50.932Z,23.53
2019-01-20T22:43:21.343Z,22.47
2019-01-20T22:45:48.832Z,21.00
2019-01-20T22:48:16.422Z,21.73
2019-01-20T22:50:44.059Z,23.63
2019-01-20T22:53:11.601Z,22.67
2019-01-20T22:55:39.362Z,20.97
2019-01-20T22:58:07.231Z,22.87
2019-01-20T23:00:47.446Z,23.00
2019-01-20T23:03:15.646Z,23.43
2019-01-20T23:05:43.359Z,21.13
2019-01-20T23:08:10.946Z,21.97
2019-01-20T23:10:38.413Z,22.37
2019-01-20T23:13:05.969Z,22.67
2019-01-20T23:15:33.516Z,22.80
2019-01-20T23:18:00.936Z,23.60
2019-01-20T23:20:28.355Z,22.70
2019-01-20T23:22:56.303Z,22.63
2019-01-20T23:25:29.926Z,22.07
2019-01-20T23:27:57.562Z,22.53
2019-01-20T23:30:24.927Z,21.93
2019-01-20T23:32:52.171Z,21.13
2019-01-20T23:35:19.640Z,22.83
2019-01-20T23:37:47.161Z,22.47
2019-01-20T23:40:14.665Z,22.70
2019-01-20T23:42:42.020Z,22.37
2019-01-20T23:45:09.652Z,22.77
2019-01-20T23:47:37.105Z,21.20
2019-01-20T23:50:06.040Z,21.73
2019-01-20T23:52:33.688Z,21.33
2019-01-20T23:55:04.159Z,22.50
2019-01-20T23:57:31.823Z,22.20
2019-01-20T23:59:59.258Z,21.17
